EDVK/KSF METAR and TAF weather

Enter ICAO airport designator
Station Type Date Time Source
EDVK METAR 2020/06/06 13:50 UTC NOAA

EDVK 061350Z 21009KT 180V250 9999 BKN035 14/07 Q1001


Station Type Date Time Source
EDVK Decoded METAR 2020/06/06 13:50 UTC NOAA

Kassel / Calden, Germany (EDVK) 51-24N 009-23E 283M
Jun 06, 2020 - 09:50 AM EDT / 2020.06.06 1350 UTC
Wind: from the SSW (210 degrees) at 10 MPH (9 KT) (direction variable):0
Visibility: greater than 7 mile(s):0
Sky conditions: mostly cloudy
Temperature: 57 F (14 C)
Dew Point: 44 F (7 C)
Relative Humidity: 62%
Pressure (altimeter): 29.56 in. Hg (1001 hPa)
ob: EDVK 061350Z 21009KT 180V250 9999 BKN035 14/07 Q1001
cycle: 14

Station Type Date Time Source
EDVK TAF 2011/03/23 07:09 UTC NOAA

TAF COR EDVK 230655Z 2307/2321 30002KT 3500 BR SCT025 PROB30
TEMPO 2307/2309 1400 BCFG
BECMG 2307/2310 01007KT 8000

Example: see airport list